Time;durP1;ratioP1;P1;durP2;ratioP2;P2;SDS_P1;SDS_P2;PMS_P1;PMS_P2;Temp;Humidity;BMP_temperature;BMP_pressure;BME280_temperature;BME280_humidity;BME280_pressure;Samples;Min_cycle;Max_cycle;Signal;HPM_P1;HPM_P2
2021/07/02 00:00:44;;;;;;;8.73;6.10;;;14.20;99.90;;;;;;5050216;28;20476;-67
2021/07/02 00:03:10;;;;;;;8.33;5.93;;;14.20;99.90;;;;;;5050948;28;20480;-65
2021/07/02 00:05:37;;;;;;;9.43;6.17;;;14.20;99.90;;;;;;5050921;28;20904;-65
2021/07/02 00:08:05;;;;;;;9.80;5.93;;;14.10;99.90;;;;;;5050351;28;20444;-65
2021/07/02 00:10:33;;;;;;;7.17;5.50;;;14.00;99.90;;;;;;5050077;28;20468;-66
2021/07/02 00:13:00;;;;;;;7.77;5.43;;;14.00;99.90;;;;;;5050657;28;20455;-64
2021/07/02 00:15:27;;;;;;;7.93;5.53;;;14.00;99.90;;;;;;5050647;28;20479;-64
2021/07/02 00:17:54;;;;;;;11.47;6.83;;;14.00;99.90;;;;;;5050270;28;20454;-65
2021/07/02 00:20:21;;;;;;;8.33;5.70;;;14.10;99.90;;;;;;5049159;28;20464;-65
2021/07/02 00:22:48;;;;;;;8.10;5.77;;;14.20;99.90;;;;;;5050632;28;20476;-65
2021/07/02 00:25:15;;;;;;;7.83;6.40;;;14.10;99.90;;;;;;5050911;28;20451;-65
2021/07/02 00:27:44;;;;;;;10.67;6.17;;;14.10;99.90;;;;;;5050405;28;20440;-65
2021/07/02 00:30:12;;;;;;;9.40;6.50;;;14.00;99.90;;;;;;5049896;28;20888;-64
2021/07/02 00:32:39;;;;;;;8.50;6.57;;;14.00;99.90;;;;;;5050728;28;20446;-64
2021/07/02 00:35:06;;;;;;;6.63;5.23;;;13.90;99.90;;;;;;5050601;28;21030;-64
2021/07/02 00:37:33;;;;;;;7.87;5.80;;;14.00;99.90;;;;;;5050187;28;20450;-64
2021/07/02 00:40:00;;;;;;;7.40;5.50;;;13.90;99.90;;;;;;5049590;28;20562;-65
2021/07/02 00:42:27;;;;;;;7.97;7.17;;;13.90;99.90;;;;;;5050312;28;20555;-66
2021/07/02 00:44:55;;;;;;;9.70;6.67;;;13.90;99.90;;;;;;5050296;28;20454;-65
2021/07/02 00:47:22;;;;;;;7.30;6.23;;;14.00;99.90;;;;;;5050140;28;20498;-65
2021/07/02 00:49:49;;;;;;;7.57;5.70;;;13.90;99.90;;;;;;5049609;28;20507;-67
2021/07/02 00:52:16;;;;;;;6.73;5.33;;;13.90;99.90;;;;;;5050378;28;20532;-65
2021/07/02 00:54:45;;;;;;;7.30;6.10;;;13.90;99.90;;;;;;5050368;28;20447;-64
2021/07/02 00:57:12;;;;;;;8.30;5.80;;;14.00;99.90;;;;;;5049946;28;20494;-65
2021/07/02 00:59:41;;;;;;;8.87;6.00;;;14.00;99.90;;;;;;5049504;28;20447;-65
2021/07/02 01:02:10;;;;;;;8.30;7.07;;;13.90;99.90;;;;;;5050107;28;20459;-65
2021/07/02 01:04:37;;;;;;;8.20;6.20;;;13.90;99.90;;;;;;5049846;28;20484;-65
2021/07/02 01:07:04;;;;;;;8.07;6.60;;;13.90;99.90;;;;;;5049869;28;21143;-64
2021/07/02 01:09:31;;;;;;;7.30;5.90;;;13.90;99.90;;;;;;5049480;28;20444;-64
2021/07/02 01:11:59;;;;;;;8.60;6.17;;;13.90;99.90;;;;;;5050010;28;20530;-66
2021/07/02 01:14:26;;;;;;;7.80;5.73;;;13.90;99.90;;;;;;5050236;28;20440;-64
2021/07/02 01:16:53;;;;;;;8.10;5.80;;;13.90;99.90;;;;;;5049762;28;20483;-65
2021/07/02 01:19:21;;;;;;;7.30;5.83;;;13.80;99.90;;;;;;5049118;28;21004;-65
2021/07/02 01:21:53;;;;;;;9.13;6.03;;;13.80;99.90;;;;;;5049559;28;21273;-66
2021/07/02 01:24:20;;;;;;;6.53;5.10;;;13.80;99.90;;;;;;5049982;28;20483;-65
2021/07/02 01:26:47;;;;;;;9.30;6.17;;;13.80;99.90;;;;;;5048131;28;20474;-67
2021/07/02 01:29:14;;;;;;;7.60;5.90;;;13.70;99.90;;;;;;5049475;28;20440;-65
2021/07/02 01:31:41;;;;;;;7.53;6.30;;;13.70;99.90;;;;;;5055936;28;20546;-67
2021/07/02 01:34:08;;;;;;;8.40;6.90;;;13.70;99.90;;;;;;5055000;28;20810;-66
2021/07/02 01:36:35;;;;;;;9.33;6.50;;;13.70;99.90;;;;;;5054409;28;20870;-67
2021/07/02 01:39:04;;;;;;;8.60;6.67;;;13.60;99.90;;;;;;5054064;28;20537;-65
2021/07/02 01:41:31;;;;;;;9.60;6.27;;;13.60;99.90;;;;;;5054595;28;20487;-65
2021/07/02 01:43:58;;;;;;;10.27;6.83;;;13.60;99.90;;;;;;5054659;28;20480;-65
2021/07/02 01:46:25;;;;;;;9.13;6.30;;;13.60;99.90;;;;;;5054135;28;20444;-65
2021/07/02 01:48:51;;;;;;;11.23;7.67;;;13.60;99.90;;;;;;5054465;28;20785;-64
2021/07/02 01:51:18;;;;;;;11.20;6.00;;;13.60;99.90;;;;;;5053294;28;20467;-65
2021/07/02 01:53:45;;;;;;;9.37;6.90;;;13.60;99.90;;;;;;5054363;28;20450;-65
2021/07/02 01:56:13;;;;;;;8.47;6.40;;;13.50;99.90;;;;;;5054220;28;21069;-64
2021/07/02 01:58:40;;;;;;;7.57;6.50;;;13.50;99.90;;;;;;5054656;28;20450;-66
2021/07/02 02:01:07;;;;;;;10.27;5.73;;;13.50;99.90;;;;;;5053286;28;20940;-64
2021/07/02 02:03:34;;;;;;;8.00;7.03;;;13.40;99.90;;;;;;5053367;28;20487;-64
2021/07/02 02:06:01;;;;;;;9.83;7.13;;;13.40;99.90;;;;;;5052601;28;20535;-65
2021/07/02 02:08:27;;;;;;;8.63;6.67;;;13.40;99.90;;;;;;5053194;28;20543;-64
2021/07/02 02:10:54;;;;;;;7.90;6.70;;;13.40;99.90;;;;;;5052262;28;20471;-64
2021/07/02 02:13:22;;;;;;;8.63;6.30;;;13.30;99.90;;;;;;5052761;28;20538;-64
2021/07/02 02:15:49;;;;;;;8.20;6.50;;;13.30;99.90;;;;;;5053239;28;20443;-64
2021/07/02 02:18:16;;;;;;;8.57;5.77;;;13.30;99.90;;;;;;5052584;28;20976;-64
2021/07/02 02:20:43;;;;;;;8.33;6.40;;;13.20;99.90;;;;;;5052269;28;20466;-63
2021/07/02 02:23:10;;;;;;;10.73;6.90;;;13.20;99.90;;;;;;5052426;28;20535;-65
2021/07/02 02:25:37;;;;;;;8.90;6.63;;;13.20;99.90;;;;;;5052811;28;20547;-63
2021/07/02 02:28:04;;;;;;;12.50;7.50;;;13.10;99.90;;;;;;5052666;28;20443;-65
2021/07/02 02:30:35;;;;;;;8.93;6.00;;;13.10;99.90;;;;;;5052210;28;20914;-65
2021/07/02 02:33:04;;;;;;;11.17;8.60;;;13.10;99.90;;;;;;5053049;28;20534;-67
2021/07/02 02:35:31;;;;;;;9.40;6.40;;;13.00;99.90;;;;;;5052497;28;20444;-64
2021/07/02 02:37:57;;;;;;;11.37;7.13;;;12.90;99.90;;;;;;5052757;28;20552;-66
2021/07/02 02:40:24;;;;;;;10.10;7.53;;;12.80;99.90;;;;;;5051822;28;20578;-65
2021/07/02 02:42:51;;;;;;;11.63;8.53;;;12.70;99.90;;;;;;5052392;28;20444;-63
2021/07/02 02:45:18;;;;;;;8.60;6.60;;;12.70;99.90;;;;;;5054973;28;20482;-66
2021/07/02 02:47:46;;;;;;;9.07;6.90;;;12.80;99.90;;;;;;5052643;28;20542;-64
2021/07/02 02:50:13;;;;;;;11.47;8.07;;;12.70;99.90;;;;;;5051809;28;20474;-64
2021/07/02 02:52:40;;;;;;;9.83;7.60;;;12.70;99.90;;;;;;5052639;28;20448;-65
2021/07/02 02:55:08;;;;;;;11.40;8.37;;;12.70;99.90;;;;;;5052539;28;20543;-65
2021/07/02 02:57:34;;;;;;;11.43;8.30;;;12.60;99.90;;;;;;5051753;28;20452;-66
2021/07/02 03:00:01;;;;;;;12.10;8.00;;;12.60;99.90;;;;;;5051406;28;20464;-65
2021/07/02 03:02:28;;;;;;;14.07;8.77;;;12.50;99.90;;;;;;5051963;28;20878;-65
2021/07/02 03:04:56;;;;;;;10.00;7.60;;;12.30;99.90;;;;;;5051780;28;20480;-65
2021/07/02 03:07:23;;;;;;;12.90;7.87;;;12.30;99.90;;;;;;5051743;28;20454;-65
2021/07/02 03:09:50;;;;;;;11.07;7.83;;;12.30;99.90;;;;;;5051042;28;20486;-64
2021/07/02 03:12:17;;;;;;;10.77;8.47;;;12.30;99.90;;;;;;5051814;28;20450;-64
2021/07/02 03:14:44;;;;;;;9.70;7.70;;;12.30;99.90;;;;;;5052093;28;20440;-66
2021/07/02 03:17:11;;;;;;;10.87;7.93;;;12.30;99.90;;;;;;5051553;28;20573;-66
2021/07/02 03:19:37;;;;;;;10.73;8.13;;;12.20;99.90;;;;;;5050707;28;20448;-64
2021/07/02 03:22:06;;;;;;;11.00;8.10;;;12.20;99.90;;;;;;5052048;28;20448;-65
2021/07/02 03:24:33;;;;;;;12.43;8.43;;;12.20;99.90;;;;;;5051410;28;20475;-65
2021/07/02 03:26:59;;;;;;;17.57;9.37;;;12.20;99.90;;;;;;5051204;28;20539;-66
2021/07/02 03:29:27;;;;;;;13.27;9.40;;;12.20;99.90;;;;;;5050642;28;20543;-65
2021/07/02 03:31:53;;;;;;;10.83;8.80;;;12.20;99.90;;;;;;5051559;28;20476;-67
2021/07/02 03:34:20;;;;;;;15.70;9.80;;;12.20;99.90;;;;;;5051931;28;20539;-63
2021/07/02 03:36:47;;;;;;;11.70;8.73;;;12.20;99.90;;;;;;5051714;28;20450;-65
2021/07/02 03:39:15;;;;;;;11.70;7.90;;;12.30;99.90;;;;;;5050977;28;21455;-65
2021/07/02 03:41:42;;;;;;;12.30;8.73;;;12.30;99.90;;;;;;5051436;28;20824;-65
2021/07/02 03:44:09;;;;;;;12.10;8.93;;;12.40;99.90;;;;;;5051822;28;20570;-64
2021/07/02 03:46:36;;;;;;;16.70;9.10;;;12.50;99.90;;;;;;5051221;28;20535;-66
2021/07/02 03:49:03;;;;;;;14.17;10.07;;;12.60;99.90;;;;;;5050440;28;20448;-64
2021/07/02 03:51:30;;;;;;;12.03;8.30;;;12.70;99.90;;;;;;5051089;28;20547;-66
2021/07/02 03:53:56;;;;;;;11.50;8.17;;;12.70;99.90;;;;;;5050149;28;20534;-65
2021/07/02 03:56:25;;;;;;;11.83;8.50;;;12.70;99.90;;;;;;5050578;28;20452;-65
2021/07/02 03:58:51;;;;;;;11.00;7.90;;;12.80;99.90;;;;;;5051015;28;20547;-66
2021/07/02 04:01:18;;;;;;;11.90;8.83;;;12.80;99.90;;;;;;5050191;28;20844;-67
2021/07/02 04:03:45;;;;;;;12.03;8.97;;;12.90;99.90;;;;;;5050888;28;20440;-64
2021/07/02 04:06:12;;;;;;;9.87;7.23;;;12.90;99.90;;;;;;5050304;28;20811;-66
2021/07/02 04:08:38;;;;;;;14.03;8.73;;;12.90;99.90;;;;;;5050908;28;20561;-66
2021/07/02 04:11:07;;;;;;;11.10;8.20;;;13.00;99.90;;;;;;5050143;28;20566;-66
2021/07/02 04:13:35;;;;;;;12.83;8.60;;;13.00;99.90;;;;;;5050320;28;20479;-64
2021/07/02 04:16:02;;;;;;;11.07;7.50;;;13.00;99.90;;;;;;5050597;28;20452;-64
2021/07/02 04:18:29;;;;;;;16.53;8.23;;;13.10;99.90;;;;;;5050617;28;20950;-65
2021/07/02 04:20:56;;;;;;;10.53;8.60;;;13.20;99.90;;;;;;5049969;28;20830;-64
2021/07/02 04:23:23;;;;;;;10.97;8.30;;;13.40;99.90;;;;;;5050724;28;20448;-65
2021/07/02 04:25:50;;;;;;;13.27;8.90;;;13.50;99.90;;;;;;5050286;28;21079;-65
2021/07/02 04:28:17;;;;;;;10.80;7.93;;;13.60;99.90;;;;;;5050313;28;20531;-66
2021/07/02 04:30:45;;;;;;;9.70;7.70;;;13.80;99.90;;;;;;5049480;28;20859;-66
2021/07/02 04:33:12;;;;;;;8.50;7.00;;;14.00;99.90;;;;;;5050533;28;20527;-64
2021/07/02 04:35:39;;;;;;;10.03;7.30;;;14.00;99.90;;;;;;5050522;28;20457;-65
2021/07/02 04:38:05;;;;;;;9.07;6.87;;;14.20;99.90;;;;;;5049821;28;20542;-62
2021/07/02 04:40:32;;;;;;;10.97;7.40;;;14.20;99.90;;;;;;5048839;28;20474;-64
2021/07/02 04:42:59;;;;;;;9.10;7.20;;;14.40;99.90;;;;;;5050383;28;21218;-70
2021/07/02 04:45:26;;;;;;;9.80;7.30;;;14.50;99.90;;;;;;5050305;28;20483;-65
2021/07/02 04:47:54;;;;;;;9.53;6.93;;;14.60;99.90;;;;;;5049919;28;20444;-64
2021/07/02 04:50:21;;;;;;;9.60;6.50;;;14.70;99.90;;;;;;5049253;28;20496;-64
2021/07/02 04:52:48;;;;;;;15.97;8.53;;;14.90;99.90;;;;;;5050033;28;20527;-66
2021/07/02 04:55:15;;;;;;;11.30;7.77;;;15.10;99.90;;;;;;5049860;28;20478;-64
2021/07/02 04:57:42;;;;;;;9.03;6.60;;;15.10;99.90;;;;;;5049379;28;20454;-66
2021/07/02 05:00:11;;;;;;;8.30;7.50;;;15.30;99.90;;;;;;5040808;28;20476;-64
2021/07/02 05:02:38;;;;;;;9.37;7.77;;;15.50;99.90;;;;;;5039808;28;20811;-66
2021/07/02 05:05:07;;;;;;;8.50;7.60;;;15.60;99.90;;;;;;5048633;28;20475;-65
2021/07/02 05:07:35;;;;;;;10.07;6.70;;;15.70;99.90;;;;;;5044189;28;21013;-66
2021/07/02 05:10:02;;;;;;;11.13;6.60;;;15.90;99.90;;;;;;5048787;28;20609;-64
2021/07/02 05:12:31;;;;;;;9.60;7.23;;;15.90;99.90;;;;;;5047990;28;20833;-65
2021/07/02 05:14:59;;;;;;;11.23;7.00;;;15.90;99.90;;;;;;5045947;28;20443;-65
2021/07/02 05:17:26;;;;;;;10.03;7.93;;;16.00;99.90;;;;;;5049502;28;20531;-65
2021/07/02 05:19:53;;;;;;;9.90;7.70;;;16.00;99.90;;;;;;5048579;28;20470;-64
2021/07/02 05:22:22;;;;;;;11.57;7.23;;;16.10;99.90;;;;;;5049238;28;20544;-64
2021/07/02 05:24:49;;;;;;;10.00;7.73;;;16.20;99.90;;;;;;5048846;28;20480;-67
2021/07/02 05:27:16;;;;;;;9.77;7.50;;;16.40;99.90;;;;;;5048230;28;20448;-65
2021/07/02 05:29:44;;;;;;;9.70;7.90;;;16.50;99.90;;;;;;5048453;28;20454;-64
2021/07/02 05:32:11;;;;;;;11.23;8.50;;;16.60;99.90;;;;;;5049374;28;20530;-67
2021/07/02 05:34:38;;;;;;;9.80;7.60;;;16.80;99.90;;;;;;5043907;28;20458;-66
2021/07/02 05:37:05;;;;;;;11.07;7.23;;;16.90;99.90;;;;;;5047837;28;20479;-64
2021/07/02 05:39:33;;;;;;;13.27;8.07;;;17.10;99.90;;;;;;5046224;28;20994;-67
2021/07/02 05:42:00;;;;;;;10.30;7.67;;;17.20;99.90;;;;;;5048676;28;20454;-65
2021/07/02 05:44:27;;;;;;;12.93;9.03;;;17.40;99.90;;;;;;5044012;28;20476;-65
2021/07/02 05:46:54;;;;;;;9.50;7.00;;;17.40;99.90;;;;;;5047966;28;20538;-64
2021/07/02 05:49:21;;;;;;;9.00;7.00;;;17.40;99.90;;;;;;5047643;28;20458;-66
2021/07/02 05:51:48;;;;;;;12.80;7.17;;;17.30;99.90;;;;;;5048584;28;20468;-65
2021/07/02 05:54:15;;;;;;;10.83;7.50;;;17.10;99.90;;;;;;5048365;28;20448;-65
2021/07/02 05:56:45;;;;;;;11.03;7.10;;;17.00;99.90;;;;;;5047740;28;20440;-65
2021/07/02 05:59:13;;;;;;;11.33;8.50;;;16.90;99.90;;;;;;5047658;28;20455;-65
2021/07/02 06:01:40;;;;;;;11.33;7.87;;;16.80;99.90;;;;;;5047943;28;20931;-66
2021/07/02 06:04:07;;;;;;;11.10;8.37;;;16.80;99.90;;;;;;5048093;28;21331;-63
2021/07/02 06:06:34;;;;;;;9.70;7.67;;;16.80;99.90;;;;;;5048010;28;20529;-65
2021/07/02 06:09:01;;;;;;;10.50;7.93;;;16.70;99.90;;;;;;5047244;28;20455;-64
2021/07/02 06:11:27;;;;;;;11.90;8.17;;;16.60;99.90;;;;;;5047885;28;20948;-64
2021/07/02 06:13:56;;;;;;;13.13;7.73;;;16.60;99.90;;;;;;5047940;28;20855;-64
2021/07/02 06:16:22;;;;;;;12.17;8.60;;;16.50;99.90;;;;;;5047503;28;20448;-65
2021/07/02 06:18:49;;;;;;;9.67;7.97;;;16.40;99.90;;;;;;5050607;28;20467;-64
2021/07/02 06:21:16;;;;;;;12.37;8.60;;;16.40;99.90;;;;;;5051008;28;20503;-65
2021/07/02 06:23:43;;;;;;;10.57;8.10;;;16.50;99.90;;;;;;5051828;28;20452;-63
2021/07/02 06:26:10;;;;;;;12.47;7.80;;;16.50;99.90;;;;;;5051079;28;20484;-65
2021/07/02 06:28:37;;;;;;;14.87;7.63;;;16.60;99.90;;;;;;5051922;28;20546;-65
2021/07/02 06:31:06;;;;;;;11.10;8.37;;;16.60;99.90;;;;;;5050447;28;20988;-67
2021/07/02 06:33:33;;;;;;;9.90;8.00;;;16.80;99.90;;;;;;5051921;28;20448;-65
2021/07/02 06:36:02;;;;;;;11.57;8.00;;;16.90;99.90;;;;;;5051206;28;20444;-65
2021/07/02 06:38:29;;;;;;;11.03;6.93;;;17.00;99.90;;;;;;5051644;28;20459;-65
2021/07/02 06:40:56;;;;;;;7.70;6.90;;;17.20;99.90;;;;;;5050422;28;20514;-65
2021/07/02 06:43:23;;;;;;;8.60;7.70;;;17.30;99.90;;;;;;5051241;28;20458;-66
2021/07/02 06:45:49;;;;;;;10.10;7.40;;;17.50;99.90;;;;;;5051133;28;20471;-65
2021/07/02 06:48:18;;;;;;;8.60;7.50;;;17.60;99.90;;;;;;5050987;28;20954;-64
2021/07/02 06:50:45;;;;;;;9.63;7.27;;;17.60;99.90;;;;;;5050466;28;20468;-65
2021/07/02 06:53:14;;;;;;;7.83;6.53;;;17.80;99.90;;;;;;5050407;28;20493;-65
2021/07/02 06:55:41;;;;;;;6.97;5.80;;;17.80;99.90;;;;;;5050982;28;20479;-65
2021/07/02 06:58:09;;;;;;;8.87;5.37;;;17.90;99.90;;;;;;5050414;28;20451;-65
2021/07/02 07:00:39;;;;;;;11.00;6.60;;;17.90;99.90;;;;;;5049882;28;20836;-63
2021/07/02 07:03:06;;;;;;;7.93;5.83;;;18.10;99.90;;;;;;5050868;28;20489;-65
2021/07/02 07:05:34;;;;;;;6.63;5.67;;;18.30;99.90;;;;;;5050665;28;20486;-65
2021/07/02 07:08:02;;;;;;;8.50;6.40;;;18.40;99.90;;;;;;5043304;28;20483;-67
2021/07/02 07:10:30;;;;;;;7.53;6.33;;;18.40;99.90;;;;;;5050683;28;20472;-65
2021/07/02 07:12:57;;;;;;;9.10;5.63;;;18.50;99.90;;;;;;5051392;28;21083;-66
2021/07/02 07:15:24;;;;;;;7.73;5.90;;;18.60;99.90;;;;;;5051688;28;20451;-64
2021/07/02 07:17:51;;;;;;;7.30;5.70;;;18.70;99.90;;;;;;5051316;28;20447;-65
2021/07/02 07:20:19;;;;;;;7.67;5.50;;;18.70;99.90;;;;;;5050841;28;20504;-65
2021/07/02 07:22:47;;;;;;;6.50;5.70;;;18.70;99.90;;;;;;5051489;28;20845;-65
2021/07/02 07:25:14;;;;;;;6.80;5.80;;;18.80;99.90;;;;;;5049305;28;20582;-65
2021/07/02 07:27:44;;;;;;;7.23;5.50;;;19.00;99.90;;;;;;5051551;28;20531;-65
2021/07/02 07:30:12;;;;;;;6.23;5.50;;;19.30;99.90;;;;;;5050749;28;20555;-65
2021/07/02 07:32:39;;;;;;;5.87;5.27;;;19.40;99.90;;;;;;5051334;28;20450;-65
2021/07/02 07:35:15;;;;;;;6.40;5.80;;;19.10;99.90;;;;;;5051217;28;20965;-65
2021/07/02 07:37:42;;;;;;;7.13;5.30;;;18.70;99.90;;;;;;5051045;28;20448;-66
2021/07/02 07:40:11;;;;;;;6.87;5.90;;;18.50;99.90;;;;;;5050356;28;20479;-65
2021/07/02 07:42:38;;;;;;;6.63;5.40;;;18.40;99.90;;;;;;5051671;28;21024;-65
2021/07/02 07:45:06;;;;;;;7.60;5.73;;;18.50;99.90;;;;;;5051256;28;20471;-63
2021/07/02 07:47:33;;;;;;;6.97;5.80;;;18.70;99.90;;;;;;5051547;28;20452;-64
2021/07/02 07:50:06;;;;;;;9.63;5.50;;;18.80;99.90;;;;;;5051290;28;20547;-65
2021/07/02 07:52:43;;;;;;;5.90;5.20;;;18.80;99.90;;;;;;5052336;28;20447;-64
2021/07/02 07:55:12;;;;;;;6.20;5.40;;;18.60;99.90;;;;;;5051120;28;20435;-64
2021/07/02 07:57:39;;;;;;;6.73;5.27;;;18.70;99.90;;;;;;5050674;28;20448;-65
2021/07/02 08:00:08;;;;;;;5.87;5.20;;;19.10;99.90;;;;;;5050205;28;21025;-66
2021/07/02 08:02:35;;;;;;;5.77;5.13;;;19.50;99.90;;;;;;5051126;28;20455;-64
2021/07/02 08:05:02;;;;;;;6.20;5.17;;;19.50;99.90;;;;;;5051167;28;20449;-65
2021/07/02 08:07:36;;;;;;;6.70;5.00;;;19.40;99.90;;;;;;5050778;28;20455;-65
2021/07/02 08:10:04;;;;;;;8.03;6.37;;;19.20;99.90;;;;;;5050395;28;20460;-65
2021/07/02 08:12:33;;;;;;;5.50;4.70;;;19.30;99.90;;;;;;5050857;28;20447;-64
2021/07/02 08:15:00;;;;;;;7.17;6.07;;;19.50;99.90;;;;;;5050819;28;20452;-65
2021/07/02 08:17:29;;;;;;;7.23;5.30;;;19.80;99.90;;;;;;5050481;28;20628;-66
2021/07/02 08:19:57;;;;;;;6.60;4.93;;;19.60;99.90;;;;;;5049878;28;20590;-63
2021/07/02 08:22:24;;;;;;;6.93;5.47;;;19.10;99.90;;;;;;5051068;28;20459;-65
2021/07/02 08:24:51;;;;;;;6.50;5.60;;;18.80;99.90;;;;;;5050726;28;21017;-63
2021/07/02 08:27:18;;;;;;;6.90;5.70;;;18.80;99.90;;;;;;5050206;28;20484;-65
2021/07/02 08:29:46;;;;;;;7.17;6.00;;;19.00;99.90;;;;;;5049968;28;20907;-64
2021/07/02 08:32:13;;;;;;;9.73;5.47;;;19.20;99.90;;;;;;5050582;28;20941;-64
2021/07/02 08:34:40;;;;;;;8.60;6.20;;;19.30;99.90;;;;;;5050967;28;20478;-64
2021/07/02 08:37:07;;;;;;;7.00;5.70;;;19.60;99.90;;;;;;5050612;28;20539;-64
2021/07/02 08:39:33;;;;;;;6.43;5.60;;;19.90;99.90;;;;;;5049554;28;20463;-63
2021/07/02 08:42:03;;;;;;;7.20;5.43;;;20.10;99.90;;;;;;5050041;28;20458;-65
2021/07/02 08:44:29;;;;;;;7.90;6.83;;;20.00;99.90;;;;;;5050252;28;20551;-65
2021/07/02 08:46:59;;;;;;;7.13;5.63;;;20.10;99.90;;;;;;5049591;28;20490;-66
2021/07/02 08:49:28;;;;;;;6.63;5.20;;;20.30;99.90;;;;;;5049717;28;20452;-64
2021/07/02 08:51:55;;;;;;;10.23;5.73;;;20.00;99.90;;;;;;5050224;28;20551;-63
2021/07/02 08:54:22;;;;;;;6.90;5.77;;;19.90;99.90;;;;;;5050178;28;20982;-66
2021/07/02 08:56:56;;;;;;;7.07;5.30;;;20.00;99.90;;;;;;5049572;28;20995;-65
2021/07/02 08:59:24;;;;;;;7.87;5.20;;;20.10;99.90;;;;;;5049307;28;20450;-63
2021/07/02 09:01:51;;;;;;;6.83;5.40;;;20.20;99.90;;;;;;5049816;28;20973;-66
2021/07/02 09:04:21;;;;;;;6.40;5.80;;;20.50;99.90;;;;;;5050227;28;20834;-64
2021/07/02 09:07:18;;;;;;;7.00;6.30;;;20.70;99.90;;;;;;5049597;28;21222;-64
2021/07/02 09:09:50;;;;;;;7.57;6.40;;;20.70;99.90;;;;;;5014286;28;20467;-66
2021/07/02 09:12:18;;;;;;;6.20;5.60;;;20.40;99.90;;;;;;5050047;28;20519;-65
2021/07/02 09:15:13;;;;;;;8.77;6.10;;;20.30;99.90;;;;;;5049899;28;20546;-64
2021/07/02 09:17:54;;;;;;;9.03;5.33;;;20.30;99.90;;;;;;5014206;28;20806;-65
2021/07/02 09:20:24;;;;;;;7.77;5.37;;;20.50;99.90;;;;;;5048695;28;21024;-65
2021/07/02 09:22:52;;;;;;;7.00;5.40;;;20.80;99.90;;;;;;5049681;28;21136;-65
2021/07/02 09:25:29;;;;;;;8.30;6.47;;;21.20;99.90;;;;;;5049689;28;20464;-65
2021/07/02 09:27:59;;;;;;;7.37;6.10;;;21.60;99.90;;;;;;5048853;28;20475;-65
2021/07/02 09:30:28;;;;;;;7.17;6.30;;;21.70;99.90;;;;;;5048584;28;20471;-64
2021/07/02 09:32:56;;;;;;;8.57;6.83;;;21.50;99.90;;;;;;5049184;28;20546;-64
2021/07/02 09:35:31;;;;;;;7.00;6.20;;;21.40;99.90;;;;;;5049205;28;20470;-63
2021/07/02 09:38:00;;;;;;;7.83;6.67;;;21.00;99.90;;;;;;5048926;28;20872;-63
2021/07/02 09:40:30;;;;;;;8.53;6.30;;;20.80;99.90;;;;;;5048227;28;20511;-63
2021/07/02 09:43:09;;;;;;;7.57;5.93;;;20.60;99.90;;;;;;5049543;28;20818;-64
2021/07/02 09:45:44;;;;;;;7.57;6.30;;;20.50;99.90;;;;;;5049148;28;20432;-64
2021/07/02 09:48:12;;;;;;;7.90;5.50;;;20.50;99.90;;;;;;5048933;28;20825;-66
2021/07/02 09:50:44;;;;;;;9.30;6.47;;;20.60;99.90;;;;;;5048164;28;20567;-64
2021/07/02 09:53:11;;;;;;;8.57;6.33;;;20.70;99.90;;;;;;5051335;28;20428;-64
2021/07/02 09:55:43;;;;;;;7.53;6.30;;;20.80;99.90;;;;;;5053247;28;20530;-64
2021/07/02 09:58:12;;;;;;;6.67;5.97;;;20.90;99.90;;;;;;5052667;28;20444;-64
2021/07/02 10:00:44;;;;;;;7.77;6.30;;;21.20;99.90;;;;;;5052559;28;20470;-63
2021/07/02 10:03:12;;;;;;;6.80;5.77;;;21.40;99.90;;;;;;5052840;28;20894;-63
2021/07/02 10:05:54;;;;;;;11.23;6.77;;;21.60;99.90;;;;;;5053003;28;20534;-65
2021/07/02 10:08:22;;;;;;;7.30;6.60;;;22.00;99.90;;;;;;5052758;28;20444;-63
2021/07/02 10:10:51;;;;;;;7.57;6.47;;;22.50;99.90;;;;;;5052031;28;20471;-65
2021/07/02 10:13:20;;;;;;;6.70;5.90;;;23.00;99.90;;;;;;5052812;28;20458;-64
2021/07/02 10:15:47;;;;;;;6.73;5.93;;;23.30;99.90;;;;;;5052758;28;20470;-66
2021/07/02 10:18:16;;;;;;;6.43;5.47;;;23.40;99.90;;;;;;5052432;28;20511;-65
2021/07/02 10:20:45;;;;;;;8.40;5.60;;;23.60;99.10;;;;;;5046322;28;20840;-64
2021/07/02 10:23:17;;;;;;;7.73;6.13;;;23.50;98.50;;;;;;5052134;28;20448;-64
2021/07/02 10:25:47;;;;;;;9.20;6.20;;;23.40;98.70;;;;;;5052723;28;20436;-65
2021/07/02 10:28:14;;;;;;;6.37;5.77;;;23.20;98.00;;;;;;5044412;28;20805;-64
2021/07/02 10:30:42;;;;;;;5.93;5.40;;;23.40;97.30;;;;;;5042519;28;21010;-65
2021/07/02 10:33:09;;;;;;;5.33;4.70;;;23.40;96.10;;;;;;5047216;28;20443;-64
2021/07/02 10:35:43;;;;;;;5.57;4.50;;;23.40;95.90;;;;;;5049214;28;20953;-64
2021/07/02 10:38:11;;;;;;;8.30;5.43;;;23.40;93.40;;;;;;5038131;28;20452;-65
2021/07/02 10:40:43;;;;;;;6.40;5.80;;;23.70;95.10;;;;;;5037485;28;20594;-65
2021/07/02 10:43:16;;;;;;;7.43;6.13;;;24.10;95.70;;;;;;5032611;28;20449;-63
2021/07/02 10:46:12;;;;;;;6.40;5.33;;;24.40;93.60;;;;;;5042748;28;20810;-64
2021/07/02 10:48:59;;;;;;;6.60;5.30;;;24.50;94.20;;;;;;5039994;28;20440;-65
2021/07/02 10:51:50;;;;;;;6.30;5.30;;;24.30;95.30;;;;;;5052751;28;20468;-64
2021/07/02 10:54:34;;;;;;;6.50;5.90;;;24.30;93.60;;;;;;5052205;28;20428;-62
2021/07/02 10:57:08;;;;;;;6.83;5.60;;;24.50;95.60;;;;;;5051666;28;20954;-65
2021/07/02 11:00:10;;;;;;;6.70;5.87;;;24.20;94.70;;;;;;5050736;28;20899;-64
2021/07/02 11:02:37;;;;;;;6.27;5.20;;;24.10;93.50;;;;;;5051841;28;20456;-63
2021/07/02 11:05:26;;;;;;;5.93;5.33;;;24.40;93.10;;;;;;5051231;28;20486;-64
2021/07/02 11:07:53;;;;;;;6.60;5.57;;;24.20;93.30;;;;;;5051219;28;20552;-66
2021/07/02 11:10:22;;;;;;;6.73;5.87;;;23.90;94.30;;;;;;5050893;28;20472;-65
2021/07/02 11:13:00;;;;;;;7.20;5.80;;;23.70;94.90;;;;;;5051327;28;20864;-66
2021/07/02 11:15:28;;;;;;;6.80;4.93;;;24.30;94.70;;;;;;5051560;28;20454;-64
2021/07/02 11:18:15;;;;;;;6.10;5.50;;;24.80;92.90;;;;;;5050882;28;20440;-65
2021/07/02 11:20:43;;;;;;;7.40;5.80;;;25.10;92.30;;;;;;5050597;28;20472;-64
2021/07/02 11:23:24;;;;;;;7.77;5.47;;;24.70;90.60;;;;;;5051187;28;20527;-63
2021/07/02 11:26:02;;;;;;;6.03;4.93;;;24.60;92.00;;;;;;5051342;28;20460;-64
2021/07/02 11:28:45;;;;;;;7.00;5.30;;;24.70;93.50;;;;;;5051149;28;20436;-67
2021/07/02 11:31:13;;;;;;;6.97;5.60;;;24.50;92.30;;;;;;5050203;28;20828;-65
2021/07/02 11:33:41;;;;;;;7.23;5.60;;;24.10;92.00;;;;;;5050867;28;20476;-65
2021/07/02 11:36:13;;;;;;;6.40;5.00;;;23.80;92.10;;;;;;5049727;28;20455;-66
2021/07/02 11:38:55;;;;;;;7.03;5.80;;;23.60;92.50;;;;;;5051065;28;20548;-64
2021/07/02 11:41:28;;;;;;;8.17;5.13;;;24.00;93.10;;;;;;5049934;28;20547;-64
2021/07/02 11:44:05;;;;;;;6.87;6.07;;;24.70;93.40;;;;;;5050621;28;20901;-65
2021/07/02 11:46:32;;;;;;;5.70;5.10;;;24.60;91.50;;;;;;5048756;28;20554;-65
2021/07/02 11:49:00;;;;;;;8.33;5.60;;;24.70;93.10;;;;;;5049936;28;20502;-64
2021/07/02 11:51:29;;;;;;;6.03;5.20;;;24.70;90.70;;;;;;5049892;28;20503;-65
2021/07/02 11:53:58;;;;;;;6.03;5.00;;;24.60;91.40;;;;;;5049495;28;20440;-65
2021/07/02 11:56:27;;;;;;;5.40;4.90;;;24.90;89.90;;;;;;5050608;28;20444;-65
2021/07/02 11:58:59;;;;;;;7.43;6.23;;;25.20;89.20;;;;;;5050685;28;20494;-66
2021/07/02 12:01:28;;;;;;;7.20;5.00;;;25.10;89.10;;;;;;5050432;28;20476;-64
2021/07/02 12:03:57;;;;;;;10.30;4.73;;;25.30;86.80;;;;;;5050482;28;20538;-65
2021/07/02 12:06:26;;;;;;;5.20;4.70;;;25.10;90.00;;;;;;5050443;28;20467;-65
2021/07/02 12:08:56;;;;;;;6.63;5.63;;;25.30;90.10;;;;;;5050419;28;20474;-61
2021/07/02 12:11:29;;;;;;;7.63;5.37;;;25.10;89.00;;;;;;5049653;28;20474;-64
2021/07/02 12:13:57;;;;;;;7.07;6.37;;;25.60;90.40;;;;;;5050638;28;20454;-65
2021/07/02 12:16:30;;;;;;;6.17;5.53;;;25.90;87.70;;;;;;5049087;28;20487;-66
2021/07/02 12:18:57;;;;;;;6.30;5.00;;;25.80;86.40;;;;;;5049979;28;20444;-62
2021/07/02 12:21:28;;;;;;;7.87;5.63;;;26.30;87.00;;;;;;5050139;28;20870;-66
2021/07/02 12:23:57;;;;;;;8.10;5.67;;;26.60;88.60;;;;;;5050455;28;20905;-62
2021/07/02 12:26:27;;;;;;;8.67;5.27;;;26.50;82.30;;;;;;5049939;28;20483;-66
2021/07/02 12:29:06;;;;;;;5.57;4.97;;;26.80;84.40;;;;;;5050161;28;20467;-64
2021/07/02 12:31:35;;;;;;;5.90;5.30;;;26.70;85.60;;;;;;5050262;28;20472;-64
2021/07/02 12:34:03;;;;;;;7.17;5.20;;;26.50;84.30;;;;;;5050280;28;20448;-64
2021/07/02 12:36:31;;;;;;;6.87;6.17;;;26.40;84.30;;;;;;5050341;28;20547;-64
2021/07/02 12:39:12;;;;;;;6.97;5.80;;;26.30;84.80;;;;;;5049457;28;21079;-64
2021/07/02 12:41:42;;;;;;;6.23;5.63;;;26.10;83.80;;;;;;5042603;28;20475;-65
2021/07/02 12:44:14;;;;;;;8.30;6.00;;;26.50;84.90;;;;;;5045976;28;20900;-66
2021/07/02 12:46:41;;;;;;;6.13;5.13;;;26.40;80.50;;;;;;5043780;28;20512;-65
2021/07/02 12:49:33;;;;;;;6.97;5.80;;;26.10;83.40;;;;;;5042606;28;20448;-64
2021/07/02 12:54:50;;;;;;;5.30;4.77;;;26.50;81.40;;;;;;5047728;28;20509;-65